createdAt,value
2023-04-30T00:01:49.969Z,9.71
2023-04-30T00:04:18.448Z,9.65
2023-04-30T00:06:46.728Z,9.58
2023-04-30T00:09:14.972Z,9.51
2023-04-30T00:11:43.143Z,9.42
2023-04-30T00:14:11.521Z,9.34
2023-04-30T00:16:39.727Z,9.25
2023-04-30T00:19:08.677Z,9.17
2023-04-30T00:21:36.862Z,9.06
2023-04-30T00:24:06.034Z,8.98
2023-04-30T00:26:34.125Z,8.92
2023-04-30T00:29:02.913Z,8.85
2023-04-30T00:31:31.153Z,8.80
2023-04-30T00:33:59.566Z,8.75
2023-04-30T00:36:27.743Z,8.69
2023-04-30T00:38:55.910Z,8.63
2023-04-30T00:41:24.696Z,8.57
2023-04-30T00:43:52.763Z,8.50
2023-04-30T00:46:21.034Z,8.43
2023-04-30T00:48:49.414Z,8.35
2023-04-30T00:51:17.892Z,8.28
2023-04-30T00:53:46.378Z,8.20
2023-04-30T00:56:16.670Z,8.12
2023-04-30T00:58:45.890Z,8.04
2023-04-30T01:01:14.108Z,7.94
2023-04-30T01:03:42.893Z,7.85
2023-04-30T01:06:11.047Z,7.75
2023-04-30T01:08:39.325Z,7.64
2023-04-30T01:11:26.923Z,7.54
2023-04-30T01:14:11.994Z,7.51
2023-04-30T01:17:06.476Z,7.48
2023-04-30T01:19:45.962Z,7.43
2023-04-30T01:22:31.190Z,7.40
2023-04-30T01:25:15.949Z,7.34
2023-04-30T01:28:06.757Z,7.24
2023-04-30T01:30:36.152Z,7.09
2023-04-30T01:33:04.634Z,6.95
2023-04-30T01:35:40.281Z,6.81
2023-04-30T01:38:20.226Z,6.70
2023-04-30T01:40:53.736Z,6.72
2023-04-30T01:43:37.074Z,6.73
2023-04-30T01:46:23.179Z,6.73
2023-04-30T01:49:16.615Z,6.70
2023-04-30T01:51:47.370Z,6.64
2023-04-30T01:54:37.019Z,6.58
2023-04-30T01:57:24.649Z,6.60
2023-04-30T01:59:53.718Z,6.65
2023-04-30T02:02:22.135Z,6.68
2023-04-30T02:04:50.701Z,6.70
2023-04-30T02:07:29.315Z,6.72
2023-04-30T02:09:57.493Z,6.74
2023-04-30T02:12:25.770Z,6.77
2023-04-30T02:14:53.936Z,6.80
2023-04-30T02:17:22.112Z,6.82
2023-04-30T02:19:50.896Z,6.80
2023-04-30T02:22:19.062Z,6.80
2023-04-30T02:24:47.236Z,6.79
2023-04-30T02:27:15.305Z,6.78
2023-04-30T02:29:43.481Z,6.78
2023-04-30T02:32:11.858Z,6.77
2023-04-30T02:34:39.923Z,6.77
2023-04-30T02:37:08.812Z,6.78
2023-04-30T02:39:37.150Z,6.77
2023-04-30T02:42:07.001Z,6.76
2023-04-30T02:44:35.490Z,6.74
2023-04-30T02:47:03.754Z,6.71
2023-04-30T02:49:32.753Z,6.68
2023-04-30T02:52:01.329Z,6.65
2023-04-30T02:54:29.499Z,6.63
2023-04-30T02:56:57.668Z,6.60
2023-04-30T02:59:26.152Z,6.60
2023-04-30T03:01:54.323Z,6.58
2023-04-30T03:04:23.028Z,6.55
2023-04-30T03:06:51.208Z,6.52
2023-04-30T03:09:19.364Z,6.49
2023-04-30T03:11:47.535Z,6.47
2023-04-30T03:14:15.797Z,6.43
2023-04-30T03:16:44.017Z,6.40
2023-04-30T03:19:13.575Z,6.38
2023-04-30T03:21:42.060Z,6.36
2023-04-30T03:24:10.237Z,6.34
2023-04-30T03:26:38.412Z,6.30
2023-04-30T03:29:06.579Z,6.25
2023-04-30T03:31:34.721Z,6.21
2023-04-30T03:34:02.922Z,6.19
2023-04-30T03:36:31.504Z,6.18
2023-04-30T03:38:59.674Z,6.17
2023-04-30T03:41:27.954Z,6.13
2023-04-30T03:43:56.140Z,6.11
2023-04-30T03:46:24.454Z,6.08
2023-04-30T03:48:52.671Z,6.07
2023-04-30T03:51:21.971Z,6.04
2023-04-30T03:53:50.249Z,6.02
2023-04-30T03:56:18.427Z,6.01
2023-04-30T03:58:46.592Z,5.99
2023-04-30T04:01:14.765Z,5.99
2023-04-30T04:03:43.212Z,5.98
2023-04-30T04:06:11.587Z,5.99
2023-04-30T04:08:43.413Z,6.00
2023-04-30T04:11:12.501Z,6.01
2023-04-30T04:13:41.258Z,6.03
2023-04-30T04:16:10.018Z,6.04
2023-04-30T04:18:38.326Z,6.06
2023-04-30T04:21:06.903Z,6.08
2023-04-30T04:23:35.693Z,6.10
2023-04-30T04:26:03.761Z,6.12
2023-04-30T04:28:32.137Z,6.13
2023-04-30T04:31:00.626Z,6.15
2023-04-30T04:33:29.404Z,6.17
2023-04-30T04:35:58.299Z,6.21
2023-04-30T04:38:26.671Z,6.24
2023-04-30T04:40:56.783Z,6.29
2023-04-30T04:43:25.164Z,6.33
2023-04-30T04:45:53.388Z,6.36
2023-04-30T04:48:21.918Z,6.38
2023-04-30T04:50:49.982Z,6.39
2023-04-30T04:53:18.050Z,6.41
2023-04-30T04:55:46.221Z,6.43
2023-04-30T04:58:14.396Z,6.46
2023-04-30T05:00:42.592Z,6.49
2023-04-30T05:03:11.290Z,6.51
2023-04-30T05:05:39.526Z,6.56
2023-04-30T05:08:07.600Z,6.59
2023-04-30T05:10:35.683Z,6.64
2023-04-30T05:13:04.153Z,6.69
2023-04-30T05:15:32.213Z,6.74
2023-04-30T05:18:00.424Z,6.78
2023-04-30T05:20:28.772Z,6.80
2023-04-30T05:22:56.838Z,6.82
2023-04-30T05:25:24.905Z,6.87
2023-04-30T05:27:53.092Z,6.89
2023-04-30T05:30:21.252Z,6.92
2023-04-30T05:32:52.361Z,6.97
2023-04-30T05:35:20.647Z,7.01
2023-04-30T05:37:49.076Z,7.06
2023-04-30T05:40:17.421Z,7.10
2023-04-30T05:42:45.528Z,7.13
2023-04-30T05:45:16.119Z,7.17
2023-04-30T05:47:44.524Z,7.21
2023-04-30T05:50:13.080Z,7.24
2023-04-30T05:52:41.352Z,7.28
2023-04-30T05:55:11.149Z,7.31
2023-04-30T05:57:39.337Z,7.34
2023-04-30T06:00:08.097Z,7.38
2023-04-30T06:02:42.274Z,7.43
2023-04-30T06:05:10.571Z,7.49
2023-04-30T06:07:38.748Z,7.54
2023-04-30T06:10:07.681Z,7.59
2023-04-30T06:12:36.065Z,7.64
2023-04-30T06:15:04.736Z,7.69
2023-04-30T06:17:33.159Z,7.74
2023-04-30T06:20:06.512Z,7.77
2023-04-30T06:22:34.751Z,7.83
2023-04-30T06:25:03.775Z,7.89
2023-04-30T06:27:32.650Z,7.93
2023-04-30T06:30:01.264Z,7.97
2023-04-30T06:32:29.440Z,8.01
2023-04-30T06:34:57.898Z,8.05
2023-04-30T06:37:26.070Z,8.07
2023-04-30T06:39:54.382Z,8.12
2023-04-30T06:42:22.518Z,8.17
2023-04-30T06:44:50.689Z,8.22
2023-04-30T06:47:18.764Z,8.27
2023-04-30T06:49:47.147Z,8.36
2023-04-30T06:52:15.309Z,8.43
2023-04-30T06:54:44.401Z,8.47
2023-04-30T06:57:12.576Z,8.53
2023-04-30T06:59:40.768Z,8.61
2023-04-30T07:02:08.858Z,8.66
2023-04-30T07:04:36.991Z,8.71
2023-04-30T07:07:05.472Z,8.75
2023-04-30T07:09:33.539Z,8.79
2023-04-30T07:12:01.938Z,8.87
2023-04-30T07:14:29.981Z,8.93
2023-04-30T07:16:58.153Z,8.99
2023-04-30T07:19:27.264Z,9.07
2023-04-30T07:21:55.429Z,9.14
2023-04-30T07:24:23.601Z,9.17
2023-04-30T07:26:51.874Z,9.22
2023-04-30T07:29:20.075Z,9.28
2023-04-30T07:31:48.351Z,9.33
2023-04-30T07:34:16.489Z,9.39
2023-04-30T07:36:44.658Z,9.48
2023-04-30T07:39:12.933Z,9.56
2023-04-30T07:41:41.110Z,9.63
2023-04-30T07:44:09.282Z,9.73
2023-04-30T07:46:37.396Z,9.82
2023-04-30T07:49:05.934Z,9.89
2023-04-30T07:51:34.235Z,9.96
2023-04-30T07:54:02.382Z,10.03
2023-04-30T07:56:30.767Z,10.17
2023-04-30T07:58:59.010Z,10.28
2023-04-30T08:01:27.315Z,10.40
2023-04-30T08:03:55.703Z,10.54
2023-04-30T08:06:24.493Z,10.62
2023-04-30T08:08:52.647Z,10.68
2023-04-30T08:11:20.816Z,10.78
2023-04-30T08:13:48.989Z,10.83
2023-04-30T08:16:17.349Z,10.92
2023-04-30T08:18:46.796Z,11.04
2023-04-30T08:21:15.142Z,11.16
2023-04-30T08:23:43.215Z,11.29
2023-04-30T08:26:11.384Z,11.40
2023-04-30T08:28:39.982Z,11.54
2023-04-30T08:31:08.667Z,11.66
2023-04-30T08:33:36.728Z,11.82
2023-04-30T08:36:05.510Z,12.01
2023-04-30T08:38:33.578Z,12.13
2023-04-30T08:41:16.087Z,12.15
2023-04-30T08:43:45.177Z,12.19
2023-04-30T08:46:17.330Z,12.22
2023-04-30T08:48:46.131Z,12.20
2023-04-30T08:51:14.616Z,12.23
2023-04-30T08:53:43.404Z,12.28
2023-04-30T08:56:11.786Z,12.38
2023-04-30T08:58:41.072Z,12.37
2023-04-30T09:01:10.236Z,12.41
2023-04-30T09:03:38.649Z,12.43
2023-04-30T09:06:06.867Z,12.45
2023-04-30T09:08:49.636Z,12.51
2023-04-30T09:11:29.070Z,12.74
2023-04-30T09:14:01.744Z,12.89
2023-04-30T09:16:45.905Z,12.74
2023-04-30T09:19:24.532Z,12.56
2023-04-30T09:21:52.886Z,12.60
2023-04-30T09:24:21.054Z,12.74
2023-04-30T09:26:49.640Z,12.94
2023-04-30T09:29:17.812Z,13.13
2023-04-30T09:31:47.772Z,13.35
2023-04-30T09:34:16.207Z,13.50
2023-04-30T09:36:57.152Z,13.69
2023-04-30T09:39:25.247Z,13.89
2023-04-30T09:41:53.623Z,14.15
2023-04-30T09:44:32.935Z,14.32
2023-04-30T09:47:01.253Z,14.48
2023-04-30T09:49:29.614Z,14.56
2023-04-30T09:52:01.696Z,14.63
2023-04-30T09:54:31.277Z,14.77
2023-04-30T09:57:02.021Z,14.94
2023-04-30T09:59:33.158Z,15.18
2023-04-30T10:02:02.969Z,15.38
2023-04-30T10:04:35.342Z,15.58
2023-04-30T10:07:12.518Z,15.71
2023-04-30T10:09:58.225Z,15.89
2023-04-30T10:12:30.777Z,16.14
2023-04-30T10:15:23.429Z,16.36
2023-04-30T10:18:05.458Z,16.63
2023-04-30T10:20:37.257Z,16.88
2023-04-30T10:23:05.967Z,17.09
2023-04-30T10:25:34.338Z,17.24
2023-04-30T10:28:04.626Z,17.52
2023-04-30T10:30:35.193Z,17.80
2023-04-30T10:33:16.801Z,18.07
2023-04-30T10:35:50.169Z,18.28
2023-04-30T10:38:29.985Z,18.40
2023-04-30T10:41:02.385Z,18.41
2023-04-30T10:43:31.683Z,18.65
2023-04-30T10:46:00.429Z,18.86
2023-04-30T10:48:31.302Z,19.04
2023-04-30T10:50:59.942Z,19.18
2023-04-30T10:53:31.565Z,19.33
2023-04-30T10:56:09.661Z,19.52
2023-04-30T10:58:39.721Z,19.74
2023-04-30T11:01:15.951Z,19.92
2023-04-30T11:04:11.243Z,20.14
2023-04-30T11:06:56.102Z,20.28
2023-04-30T11:09:39.433Z,20.39
2023-04-30T11:12:22.244Z,20.64
2023-04-30T11:14:50.591Z,20.73
2023-04-30T11:17:23.723Z,20.81
2023-04-30T11:19:53.926Z,20.83
2023-04-30T11:22:26.807Z,20.76
2023-04-30T11:25:03.944Z,20.70
2023-04-30T11:27:36.681Z,20.70
2023-04-30T11:30:10.973Z,20.93
2023-04-30T11:32:40.600Z,21.05
2023-04-30T11:35:09.254Z,21.20
2023-04-30T11:37:44.115Z,21.41
2023-04-30T11:40:14.023Z,21.54
2023-04-30T11:42:47.135Z,21.67
2023-04-30T11:45:21.128Z,21.74
2023-04-30T11:47:55.372Z,21.92
2023-04-30T11:50:29.816Z,22.03
2023-04-30T11:52:59.368Z,22.10
2023-04-30T11:55:28.158Z,22.18
2023-04-30T11:57:59.588Z,22.29
2023-04-30T12:00:29.640Z,22.41
2023-04-30T12:03:00.596Z,22.51
2023-04-30T12:05:29.126Z,22.64
2023-04-30T12:08:00.392Z,22.70
2023-04-30T12:10:28.545Z,22.92
2023-04-30T12:12:56.715Z,23.04
2023-04-30T12:15:29.325Z,23.19
2023-04-30T12:17:58.998Z,23.23
2023-04-30T12:20:29.636Z,23.28
2023-04-30T12:22:58.870Z,23.27
2023-04-30T12:25:30.065Z,23.19
2023-04-30T12:27:59.836Z,23.21
2023-04-30T12:30:28.174Z,23.38
2023-04-30T12:33:00.618Z,23.45
2023-04-30T12:35:31.540Z,23.57
2023-04-30T12:38:05.466Z,23.79
2023-04-30T12:40:33.948Z,23.85
2023-04-30T12:43:04.394Z,23.89
2023-04-30T12:45:53.041Z,23.98
2023-04-30T12:48:24.634Z,24.04
2023-04-30T12:50:52.961Z,24.06
2023-04-30T12:53:22.143Z,24.06
2023-04-30T12:56:15.604Z,24.19
2023-04-30T12:58:47.590Z,24.28
2023-04-30T13:01:24.066Z,24.46
2023-04-30T13:03:53.946Z,24.59
2023-04-30T13:06:23.594Z,24.85
2023-04-30T13:08:58.538Z,25.08
2023-04-30T13:11:27.890Z,25.10
2023-04-30T13:13:56.316Z,25.11
2023-04-30T13:16:25.296Z,25.11
2023-04-30T13:18:55.131Z,25.11
2023-04-30T13:21:25.136Z,25.09
2023-04-30T13:23:54.929Z,25.13
2023-04-30T13:26:24.100Z,25.16
2023-04-30T13:28:52.577Z,25.22
2023-04-30T13:31:20.863Z,25.28
2023-04-30T13:33:49.643Z,25.34
2023-04-30T13:36:17.906Z,25.33
2023-04-30T13:38:46.078Z,25.36
2023-04-30T13:41:14.515Z,25.37
2023-04-30T13:43:43.857Z,25.32
2023-04-30T13:46:12.166Z,25.18
2023-04-30T13:48:40.306Z,25.19
2023-04-30T13:51:08.583Z,25.32
2023-04-30T13:53:37.550Z,25.42
2023-04-30T13:56:07.064Z,25.55
2023-04-30T13:58:35.253Z,25.61
2023-04-30T14:01:03.793Z,25.67
2023-04-30T14:03:32.218Z,25.85
2023-04-30T14:06:00.932Z,25.91
2023-04-30T14:08:30.604Z,25.92
2023-04-30T14:10:58.995Z,26.05
2023-04-30T14:13:27.146Z,26.22
2023-04-30T14:15:56.363Z,26.09
2023-04-30T14:18:24.620Z,26.06
2023-04-30T14:20:52.789Z,26.24
2023-04-30T14:23:20.963Z,26.33
2023-04-30T14:25:49.243Z,26.36
2023-04-30T14:28:17.408Z,26.50
2023-04-30T14:30:45.792Z,26.41
2023-04-30T14:33:14.917Z,26.52
2023-04-30T14:35:43.163Z,26.73
2023-04-30T14:38:11.326Z,26.65
2023-04-30T14:40:39.400Z,26.59
2023-04-30T14:43:07.632Z,26.49
2023-04-30T14:45:35.963Z,26.51
2023-04-30T14:48:05.666Z,26.61
2023-04-30T14:50:34.033Z,26.63
2023-04-30T14:53:03.946Z,26.70
2023-04-30T14:55:32.833Z,26.84
2023-04-30T14:58:01.223Z,26.94
2023-04-30T15:00:29.611Z,27.13
2023-04-30T15:02:58.023Z,27.25
2023-04-30T15:05:26.967Z,27.28
2023-04-30T15:07:55.238Z,27.25
2023-04-30T15:10:23.421Z,27.39
2023-04-30T15:12:51.679Z,27.53
2023-04-30T15:15:21.488Z,27.64
2023-04-30T15:17:49.695Z,27.56
2023-04-30T15:20:18.040Z,27.61
2023-04-30T15:22:46.219Z,27.63
2023-04-30T15:25:14.494Z,27.56
2023-04-30T15:27:42.665Z,27.58
2023-04-30T15:30:11.463Z,27.61
2023-04-30T15:32:40.474Z,27.72
2023-04-30T15:35:09.548Z,27.93
2023-04-30T15:37:37.705Z,27.98
2023-04-30T15:40:07.096Z,27.91
2023-04-30T15:42:35.189Z,27.96
2023-04-30T15:45:04.472Z,27.91
2023-04-30T15:47:32.773Z,27.73
2023-04-30T15:50:01.372Z,27.62
2023-04-30T15:52:29.502Z,27.64
2023-04-30T15:54:57.882Z,27.58
2023-04-30T15:57:26.052Z,27.32
2023-04-30T15:59:55.035Z,27.20
2023-04-30T16:02:23.439Z,26.97
2023-04-30T16:04:51.797Z,26.84
2023-04-30T16:07:19.875Z,26.65
2023-04-30T16:09:49.265Z,26.37
2023-04-30T16:12:17.446Z,26.21
2023-04-30T16:14:45.623Z,25.93
2023-04-30T16:17:13.786Z,25.42
2023-04-30T16:19:42.168Z,24.44
2023-04-30T16:22:10.336Z,23.48
2023-04-30T16:24:38.406Z,22.65
2023-04-30T16:27:07.504Z,21.97
2023-04-30T16:29:35.676Z,21.17
2023-04-30T16:32:03.911Z,20.65
2023-04-30T16:34:32.123Z,20.10
2023-04-30T16:37:00.564Z,19.58
2023-04-30T16:39:28.765Z,19.14
2023-04-30T16:41:56.838Z,18.80
2023-04-30T16:44:25.113Z,18.44
2023-04-30T16:46:53.283Z,18.06
2023-04-30T16:49:22.686Z,17.74
2023-04-30T16:51:51.470Z,17.46
2023-04-30T16:54:19.542Z,17.22
2023-04-30T16:56:47.611Z,16.97
2023-04-30T16:59:15.885Z,16.73
2023-04-30T17:01:44.042Z,16.53
2023-04-30T17:04:12.639Z,16.37
2023-04-30T17:06:40.848Z,16.12
2023-04-30T17:09:08.985Z,15.91
2023-04-30T17:11:37.362Z,15.73
2023-04-30T17:14:05.437Z,15.58
2023-04-30T17:16:33.702Z,15.41
2023-04-30T17:19:01.975Z,15.23
2023-04-30T17:21:30.365Z,15.08
2023-04-30T17:23:58.834Z,14.94
2023-04-30T17:26:27.336Z,14.82
2023-04-30T17:28:55.796Z,14.69
2023-04-30T17:31:24.549Z,14.55
2023-04-30T17:33:52.963Z,14.41
2023-04-30T17:36:21.231Z,14.29
2023-04-30T17:38:49.303Z,14.13
2023-04-30T17:41:18.804Z,14.00
2023-04-30T17:43:46.984Z,13.89
2023-04-30T17:46:15.116Z,13.78
2023-04-30T17:48:43.256Z,13.65
2023-04-30T17:51:11.501Z,13.53
2023-04-30T17:53:40.831Z,13.43
2023-04-30T17:56:09.900Z,13.29
2023-04-30T17:58:39.827Z,13.10
2023-04-30T18:01:08.900Z,12.89
2023-04-30T18:03:37.109Z,12.63
2023-04-30T18:06:05.432Z,12.39
2023-04-30T18:08:33.729Z,12.13
2023-04-30T18:11:04.772Z,11.89
2023-04-30T18:13:33.038Z,11.68
2023-04-30T18:16:01.352Z,11.48
2023-04-30T18:18:29.600Z,11.29
2023-04-30T18:20:57.795Z,11.12
2023-04-30T18:23:26.142Z,10.93
2023-04-30T18:25:54.203Z,10.73
2023-04-30T18:28:22.389Z,10.54
2023-04-30T18:30:50.685Z,10.35
2023-04-30T18:33:19.029Z,10.18
2023-04-30T18:35:50.589Z,10.04
2023-04-30T18:38:18.974Z,9.90
2023-04-30T18:40:47.133Z,9.70
2023-04-30T18:43:16.952Z,9.54
2023-04-30T18:45:45.114Z,9.39
2023-04-30T18:48:15.435Z,9.24
2023-04-30T18:50:43.536Z,9.07
2023-04-30T18:53:12.495Z,8.92
2023-04-30T18:55:41.485Z,8.78
2023-04-30T18:58:09.680Z,8.66
2023-04-30T19:00:37.842Z,8.55
2023-04-30T19:03:06.119Z,8.44
2023-04-30T19:05:36.015Z,8.32
2023-04-30T19:08:04.207Z,8.19
2023-04-30T19:10:34.111Z,8.11
2023-04-30T19:13:02.694Z,8.03
2023-04-30T19:15:30.961Z,7.92
2023-04-30T19:17:59.183Z,7.85
2023-04-30T19:20:27.417Z,7.77
2023-04-30T19:22:55.715Z,7.69
2023-04-30T19:25:23.859Z,7.62
2023-04-30T19:27:52.027Z,7.55
2023-04-30T19:30:20.196Z,7.46
2023-04-30T19:32:48.484Z,7.38
2023-04-30T19:35:16.754Z,7.32
2023-04-30T19:37:45.320Z,7.24
2023-04-30T19:40:14.812Z,7.14
2023-04-30T19:42:42.910Z,7.06
2023-04-30T19:45:11.692Z,7.00
2023-04-30T19:47:39.903Z,6.95
2023-04-30T19:50:08.964Z,6.89
2023-04-30T19:52:37.232Z,6.83
2023-04-30T19:55:06.118Z,6.77
2023-04-30T19:57:36.122Z,6.72
2023-04-30T20:00:04.718Z,6.66
2023-04-30T20:02:35.188Z,6.61
2023-04-30T20:05:06.923Z,6.57
2023-04-30T20:07:35.993Z,6.51
2023-04-30T20:10:04.649Z,6.47
2023-04-30T20:12:32.749Z,6.45
2023-04-30T20:15:01.239Z,6.40
2023-04-30T20:17:29.494Z,6.34
2023-04-30T20:19:58.209Z,6.27
2023-04-30T20:22:27.693Z,6.22
2023-04-30T20:24:56.577Z,6.16
2023-04-30T20:27:25.889Z,6.10
2023-04-30T20:29:54.555Z,6.04
2023-04-30T20:32:22.994Z,5.98
2023-04-30T20:34:52.339Z,5.94
2023-04-30T20:37:20.432Z,5.91
2023-04-30T20:39:48.583Z,5.89
2023-04-30T20:42:17.060Z,5.86
2023-04-30T20:44:45.131Z,5.81
2023-04-30T20:47:14.565Z,5.77
2023-04-30T20:49:43.744Z,5.70
2023-04-30T20:52:15.700Z,5.65
2023-04-30T20:54:44.076Z,5.63
2023-04-30T20:57:12.140Z,5.62
2023-04-30T20:59:40.211Z,5.58
2023-04-30T21:02:09.208Z,5.54
2023-04-30T21:04:37.475Z,5.48
2023-04-30T21:07:05.852Z,5.42
2023-04-30T21:09:35.977Z,5.37
2023-04-30T21:12:05.546Z,5.32
2023-04-30T21:14:34.365Z,5.27
2023-04-30T21:17:02.770Z,5.24
2023-04-30T21:19:31.739Z,5.20
2023-04-30T21:22:00.219Z,5.18
2023-04-30T21:24:31.263Z,5.13
2023-04-30T21:27:00.526Z,5.11
2023-04-30T21:29:28.831Z,5.09
2023-04-30T21:31:57.207Z,5.05
2023-04-30T21:34:25.480Z,5.02
2023-04-30T21:36:53.650Z,4.97
2023-04-30T21:39:21.826Z,4.92
2023-04-30T21:41:50.405Z,4.86
2023-04-30T21:44:19.910Z,4.80
2023-04-30T21:46:48.290Z,4.75
2023-04-30T21:49:17.083Z,4.70
2023-04-30T21:51:45.451Z,4.66
2023-04-30T21:54:13.618Z,4.62
2023-04-30T21:56:41.693Z,4.57
2023-04-30T21:59:09.861Z,4.52
2023-04-30T22:01:38.232Z,4.48
2023-04-30T22:04:06.568Z,4.45
2023-04-30T22:06:35.192Z,4.39
2023-04-30T22:09:04.719Z,4.37
2023-04-30T22:11:33.176Z,4.34
2023-04-30T22:14:01.345Z,4.31
2023-04-30T22:16:29.572Z,4.29
2023-04-30T22:18:59.033Z,4.27
2023-04-30T22:21:27.507Z,4.24
2023-04-30T22:23:55.879Z,4.19
2023-04-30T22:26:25.568Z,4.16
2023-04-30T22:28:53.757Z,4.10
2023-04-30T22:31:22.109Z,4.06
2023-04-30T22:33:50.310Z,4.05
2023-04-30T22:36:18.687Z,4.07
2023-04-30T22:38:46.758Z,4.05
2023-04-30T22:41:15.028Z,4.01
2023-04-30T22:43:46.780Z,3.96
2023-04-30T22:46:15.680Z,3.89
2023-04-30T22:48:44.577Z,3.83
2023-04-30T22:51:12.740Z,3.79
2023-04-30T22:53:40.814Z,3.76
2023-04-30T22:56:09.091Z,3.73
2023-04-30T22:58:37.465Z,3.69
2023-04-30T23:01:05.620Z,3.67
2023-04-30T23:03:34.107Z,3.65
2023-04-30T23:06:02.325Z,3.63
2023-04-30T23:08:30.665Z,3.58
2023-04-30T23:10:58.831Z,3.59
2023-04-30T23:13:27.006Z,3.60
2023-04-30T23:15:58.957Z,3.63
2023-04-30T23:18:27.443Z,3.61
2023-04-30T23:20:59.039Z,3.59
2023-04-30T23:23:28.396Z,3.54
2023-04-30T23:25:56.773Z,3.53
2023-04-30T23:28:25.154Z,3.49
2023-04-30T23:30:54.351Z,3.48
2023-04-30T23:33:22.420Z,3.47
2023-04-30T23:35:53.175Z,3.44
2023-04-30T23:38:21.733Z,3.38
2023-04-30T23:40:50.013Z,3.33
2023-04-30T23:43:18.180Z,3.30
2023-04-30T23:45:46.454Z,3.26
2023-04-30T23:48:15.781Z,3.20
2023-04-30T23:50:43.926Z,3.17
2023-04-30T23:53:12.711Z,3.12
2023-04-30T23:55:41.708Z,3.10
2023-04-30T23:58:09.875Z,3.05
